createdAt,value
2018-08-06T00:00:53.643Z,99725.66
2018-08-06T00:02:31.192Z,99760.11
2018-08-06T00:04:09.484Z,99808.69
2018-08-06T00:05:46.581Z,99850.36
2018-08-06T00:07:24.561Z,99765.55
2018-08-06T00:09:01.218Z,99694.20
2018-08-06T00:10:38.879Z,99695.55
2018-08-06T00:12:16.713Z,99734.69
2018-08-06T00:13:54.534Z,99779.89
2018-08-06T00:15:32.168Z,99736.30
2018-08-06T00:17:09.783Z,99761.25
2018-08-06T00:18:46.154Z,99762.23
2018-08-06T00:20:23.150Z,99609.61
2018-08-06T00:22:00.354Z,99545.19
2018-08-06T00:23:37.123Z,99448.23
2018-08-06T00:25:14.777Z,99350.61
2018-08-06T00:26:51.365Z,99333.48
2018-08-06T00:28:27.754Z,99322.91
2018-08-06T00:30:07.221Z,99334.84
2018-08-06T00:31:43.996Z,99363.69
2018-08-06T00:33:20.234Z,99383.53
2018-08-06T00:34:56.536Z,99489.94
2018-08-06T00:36:36.852Z,99579.16
2018-08-06T00:38:16.771Z,99658.00
2018-08-06T00:39:53.226Z,99638.01
2018-08-06T00:41:29.692Z,99648.27
2018-08-06T00:43:06.696Z,99607.55
2018-08-06T00:44:47.821Z,99609.27
2018-08-06T00:46:24.478Z,99499.67
2018-08-06T00:48:00.840Z,99474.99
2018-08-06T00:49:38.494Z,99557.81
2018-08-06T00:51:14.901Z,99533.47
2018-08-06T00:52:51.937Z,99423.23
2018-08-06T00:54:28.677Z,99447.16
2018-08-06T00:56:07.197Z,99441.72
2018-08-06T00:57:44.198Z,99389.45
2018-08-06T00:59:20.583Z,99344.72
2018-08-06T01:00:57.511Z,99395.74
2018-08-06T01:02:35.311Z,99420.89
2018-08-06T01:04:11.659Z,99430.61
2018-08-06T01:05:47.910Z,99436.04
2018-08-06T01:07:24.304Z,99471.94
2018-08-06T01:09:02.025Z,99450.23
2018-08-06T01:10:38.420Z,99346.07
2018-08-06T01:12:16.366Z,99323.03
2018-08-06T01:13:52.725Z,99344.72
2018-08-06T01:15:29.713Z,99395.25
2018-08-06T01:17:06.203Z,99451.59
2018-08-06T01:18:42.624Z,99424.59
2018-08-06T01:20:18.961Z,99441.59
2018-08-06T01:21:55.260Z,99494.62
2018-08-06T01:23:31.678Z,99562.47
2018-08-06T01:25:08.066Z,99504.87
2018-08-06T01:26:44.416Z,99369.23
2018-08-06T01:28:21.429Z,99259.94
2018-08-06T01:29:57.755Z,99271.87
2018-08-06T01:31:34.090Z,99335.61
2018-08-06T01:33:11.303Z,99328.09
2018-08-06T01:34:48.259Z,99384.78
2018-08-06T01:36:24.847Z,99455.67
2018-08-06T01:38:01.214Z,99467.24
2018-08-06T01:39:37.592Z,99534.95
2018-08-06T01:41:15.305Z,99525.72
2018-08-06T01:42:51.652Z,99451.34
2018-08-06T01:44:27.950Z,99309.48
2018-08-06T01:46:04.813Z,99225.80
2018-08-06T01:47:41.477Z,99151.11
2018-08-06T01:49:17.805Z,99115.27
2018-08-06T01:50:54.274Z,99117.49
2018-08-06T01:52:30.597Z,99149.01
2018-08-06T01:54:07.435Z,99194.06
2018-08-06T01:55:43.745Z,99252.04
2018-08-06T01:57:19.985Z,99248.13
2018-08-06T01:58:56.367Z,99282.97
2018-08-06T02:00:33.727Z,99294.10
2018-08-06T02:02:10.838Z,99266.59
2018-08-06T02:03:47.171Z,99268.45
2018-08-06T02:05:23.601Z,99217.95
2018-08-06T02:07:00.365Z,99203.06
2018-08-06T02:08:36.742Z,99214.49
2018-08-06T02:10:15.651Z,99211.78
2018-08-06T02:11:52.037Z,99193.32
2018-08-06T02:13:30.106Z,99153.45
2018-08-06T02:15:09.375Z,99148.14
2018-08-06T02:16:45.592Z,99214.49
2018-08-06T02:18:22.816Z,99236.28
2018-08-06T02:19:59.590Z,99209.69
2018-08-06T02:21:36.644Z,99121.56
2018-08-06T02:23:13.062Z,99026.20
2018-08-06T02:24:49.789Z,98993.48
2018-08-06T02:26:26.826Z,98948.11
2018-08-06T02:28:03.388Z,98985.60
2018-08-06T02:29:41.633Z,99114.53
2018-08-06T02:31:18.292Z,99128.58
2018-08-06T02:32:55.120Z,99229.17
2018-08-06T02:34:31.538Z,99244.17
2018-08-06T02:36:08.046Z,99288.52
2018-08-06T02:37:44.799Z,99288.02
2018-08-06T02:39:21.653Z,99300.97
2018-08-06T02:40:58.019Z,99347.95
2018-08-06T02:42:34.303Z,99384.16
2018-08-06T02:44:11.333Z,99325.40
2018-08-06T02:45:48.728Z,99282.00
2018-08-06T02:47:25.144Z,99198.86
2018-08-06T02:49:01.863Z,99099.81
2018-08-06T02:50:38.919Z,99053.27
2018-08-06T02:52:15.656Z,98924.39
2018-08-06T02:53:52.179Z,98854.22
2018-08-06T02:55:28.545Z,98834.32
2018-08-06T02:57:07.280Z,98823.24
2018-08-06T02:58:44.086Z,98857.66
2018-08-06T03:00:20.549Z,98970.86
2018-08-06T03:01:56.925Z,98996.31
2018-08-06T03:03:33.365Z,98970.36
2018-08-06T03:05:13.079Z,98942.23
2018-08-06T03:06:49.934Z,98992.00
2018-08-06T03:08:27.505Z,98990.28
2018-08-06T03:10:04.567Z,98959.31
2018-08-06T03:11:41.644Z,98912.98
2018-08-06T03:13:18.017Z,98881.63
2018-08-06T03:14:54.366Z,98907.31
2018-08-06T03:16:30.871Z,98909.03
2018-08-06T03:18:07.440Z,98889.63
2018-08-06T03:19:43.666Z,98884.70
2018-08-06T03:21:19.939Z,98869.72
2018-08-06T03:22:56.267Z,98912.98
2018-08-06T03:24:33.201Z,98972.86
2018-08-06T03:26:09.629Z,98893.19
2018-08-06T03:27:46.381Z,98825.25
2018-08-06T03:29:22.936Z,98696.02
2018-08-06T03:30:59.954Z,98637.48
2018-08-06T03:32:37.168Z,98587.55
2018-08-06T03:34:13.663Z,98603.85
2018-08-06T03:35:50.168Z,98568.17
2018-08-06T03:37:29.795Z,98582.63
2018-08-06T03:39:09.456Z,98550.52
2018-08-06T03:40:45.813Z,98561.90
2018-08-06T03:42:22.177Z,98557.11
2018-08-06T03:45:35.107Z,98561.04
2018-08-06T03:47:12.197Z,98484.19
2018-08-06T03:48:48.506Z,98440.84
2018-08-06T03:50:25.337Z,98445.76
2018-08-06T03:52:01.660Z,98461.26
2018-08-06T03:53:38.394Z,98485.90
2018-08-06T03:55:14.805Z,98540.94
2018-08-06T03:56:51.562Z,98550.64
2018-08-06T03:58:27.916Z,98546.70
2018-08-06T04:00:06.403Z,98579.34
2018-08-06T04:01:42.985Z,98498.27
2018-08-06T04:03:19.723Z,98449.45
2018-08-06T04:04:55.949Z,98474.61
2018-08-06T04:06:32.295Z,98476.33
2018-08-06T04:08:08.675Z,98504.41
2018-08-06T04:09:45.849Z,98545.98
2018-08-06T04:11:22.906Z,98609.42
2018-08-06T04:12:59.321Z,98536.31
2018-08-06T04:14:35.487Z,98512.88
2018-08-06T04:16:12.508Z,98550.27
2018-08-06T04:17:48.800Z,98652.11
2018-08-06T04:19:25.022Z,98807.94
2018-08-06T04:21:01.351Z,98956.27
2018-08-06T04:22:38.166Z,98949.25
2018-08-06T04:24:14.337Z,99007.06
2018-08-06T04:25:50.773Z,99047.02
2018-08-06T04:27:27.156Z,99154.33
2018-08-06T04:29:04.233Z,99259.73
2018-08-06T04:30:40.192Z,99381.61
2018-08-06T04:32:16.636Z,99371.89
2018-08-06T04:33:52.915Z,99350.55
2018-08-06T04:35:29.673Z,99375.96
2018-08-06T04:37:06.173Z,99562.52
2018-08-06T04:38:43.756Z,99685.34
2018-08-06T04:40:20.050Z,99731.03
2018-08-06T04:41:56.659Z,99823.90
2018-08-06T04:43:32.895Z,99817.71
2018-08-06T04:45:10.808Z,99673.13
2018-08-06T04:46:48.279Z,99729.41
2018-08-06T04:48:25.110Z,99775.59
2018-08-06T04:50:01.323Z,99751.26
2018-08-06T04:51:38.207Z,99654.09
2018-08-06T04:53:14.545Z,99486.89
2018-08-06T04:54:54.664Z,99381.51
2018-08-06T04:56:30.985Z,99331.45
2018-08-06T04:58:13.264Z,99362.41
2018-08-06T04:59:51.579Z,99370.89
2018-08-06T05:01:58.495Z,99316.42
2018-08-06T05:03:35.920Z,99337.61
2018-08-06T05:05:17.609Z,99266.30
2018-08-06T05:06:54.392Z,99218.52
2018-08-06T05:08:32.107Z,99230.07
2018-08-06T05:10:12.530Z,99371.76
2018-08-06T05:11:49.655Z,99402.33
2018-08-06T05:13:26.192Z,99453.73
2018-08-06T05:15:05.138Z,99558.82
2018-08-06T05:16:42.495Z,99637.42
2018-08-06T05:18:24.725Z,99676.83
2018-08-06T05:20:02.272Z,99754.12
2018-08-06T05:21:38.529Z,99863.43
2018-08-06T05:23:15.476Z,99879.89
2018-08-06T05:24:51.587Z,99859.01
2018-08-06T05:26:29.465Z,99870.48
2018-08-06T05:28:07.381Z,100036.80
2018-08-06T05:29:44.405Z,100024.81
2018-08-06T05:31:21.874Z,100005.63
2018-08-06T05:32:58.476Z,99949.26
2018-08-06T05:35:43.621Z,100017.75
2018-08-06T05:37:34.985Z,100150.39
2018-08-06T05:39:13.623Z,100177.51
2018-08-06T05:40:50.575Z,100040.87
2018-08-06T05:42:29.855Z,100023.08
2018-08-06T05:44:09.120Z,100120.56
2018-08-06T05:45:46.035Z,100189.50
2018-08-06T05:47:26.202Z,100182.81
2018-08-06T05:49:04.293Z,100130.84
2018-08-06T05:50:41.530Z,100112.66
2018-08-06T05:52:18.400Z,100217.14
2018-08-06T05:53:54.858Z,100253.31
2018-08-06T05:55:33.403Z,100300.99
2018-08-06T05:57:09.989Z,100318.33
2018-08-06T05:58:46.968Z,100468.55
2018-08-06T06:00:23.557Z,100398.52
2018-08-06T06:02:00.227Z,100359.85
2018-08-06T06:03:36.898Z,100301.86
2018-08-06T06:05:13.932Z,100173.65
2018-08-06T06:06:50.642Z,100257.40
2018-08-06T06:08:28.132Z,100351.41
2018-08-06T06:10:04.718Z,100342.37
2018-08-06T06:11:41.680Z,100482.82
2018-08-06T06:13:18.160Z,100390.45
2018-08-06T06:14:59.446Z,100396.39
2018-08-06T06:16:39.676Z,100468.55
2018-08-06T06:18:17.663Z,100480.20
2018-08-06T06:19:55.368Z,100640.13
2018-08-06T06:21:31.843Z,100654.28
2018-08-06T06:24:50.528Z,100547.68
2018-08-06T06:26:26.879Z,100498.19
2018-08-06T06:28:04.529Z,100526.72
2018-08-06T06:29:44.452Z,100426.38
2018-08-06T06:31:26.358Z,100452.17
2018-08-06T06:33:04.444Z,100465.58
2018-08-06T06:34:43.451Z,100289.59
2018-08-06T06:36:20.834Z,100197.78
2018-08-06T06:37:57.855Z,100148.91
2018-08-06T06:39:35.631Z,100164.88
2018-08-06T06:41:18.092Z,100101.23
2018-08-06T06:42:54.886Z,100148.39
2018-08-06T06:44:31.359Z,100077.13
2018-08-06T06:46:07.906Z,100006.87
2018-08-06T06:47:44.687Z,100010.84
2018-08-06T06:49:22.635Z,99961.12
2018-08-06T06:51:01.529Z,99937.09
2018-08-06T06:52:38.183Z,99901.00
2018-08-06T06:54:16.732Z,99899.27
2018-08-06T06:55:54.140Z,99937.97
2018-08-06T06:57:30.790Z,100080.60
2018-08-06T06:59:07.683Z,100223.95
2018-08-06T07:00:44.303Z,100502.55
2018-08-06T07:02:20.931Z,100514.08
2018-08-06T07:03:58.398Z,100389.69
2018-08-06T07:05:34.874Z,100356.25
2018-08-06T07:07:12.516Z,100383.02
2018-08-06T07:08:48.653Z,100421.69
2018-08-06T07:10:24.895Z,100331.34
2018-08-06T07:12:02.365Z,100283.17
2018-08-06T07:13:40.238Z,100346.94
2018-08-06T07:16:12.252Z,100311.28
2018-08-06T07:17:52.129Z,100349.55
2018-08-06T07:19:31.694Z,100369.13
2018-08-06T07:21:10.338Z,100510.48
2018-08-06T07:22:47.510Z,100639.50
2018-08-06T07:24:26.135Z,100799.23
2018-08-06T07:26:02.737Z,100866.80
2018-08-06T07:27:43.242Z,100869.04
2018-08-06T07:29:23.433Z,100836.50
2018-08-06T07:31:00.740Z,100746.16
2018-08-06T07:32:38.239Z,100743.42
2018-08-06T07:34:15.724Z,100829.67
2018-08-06T07:35:52.829Z,100796.23
2018-08-06T07:37:29.996Z,100710.52
2018-08-06T07:39:10.937Z,100861.44
2018-08-06T07:40:48.882Z,101263.09
2018-08-06T07:42:25.213Z,101358.11
2018-08-06T07:44:01.694Z,101122.63
2018-08-06T07:45:39.254Z,101030.80
2018-08-06T07:47:16.594Z,101154.38
2018-08-06T07:48:54.022Z,101315.63
2018-08-06T07:50:36.009Z,101517.82
2018-08-06T07:52:13.889Z,101682.13
2018-08-06T07:53:50.445Z,101978.80
2018-08-06T07:55:27.705Z,102040.48
2018-08-06T07:57:05.166Z,101969.30
2018-08-06T07:58:55.975Z,101788.66
2018-08-06T08:00:38.507Z,101536.78
2018-08-06T08:02:14.942Z,101469.89
2018-08-06T08:03:53.060Z,101164.68
2018-08-06T08:05:37.652Z,101102.09
2018-08-06T08:07:14.165Z,100993.72
2018-08-06T08:08:52.109Z,100908.69
2018-08-06T08:10:28.874Z,100923.88
2018-08-06T08:12:06.810Z,100972.61
2018-08-06T08:13:43.151Z,100963.16
2018-08-06T08:15:26.901Z,100849.30
2018-08-06T08:17:03.742Z,100810.29
2018-08-06T08:18:40.229Z,100798.22
2018-08-06T08:20:17.989Z,101025.34
2018-08-06T08:21:54.344Z,101132.23
2018-08-06T08:23:39.493Z,101169.70
2018-08-06T08:25:20.789Z,101221.72
2018-08-06T08:26:57.235Z,101500.52
2018-08-06T08:28:33.743Z,101844.05
2018-08-06T08:30:15.488Z,102008.25
2018-08-06T08:31:55.478Z,101920.89
2018-08-06T08:33:33.238Z,101736.22
2018-08-06T08:35:18.523Z,101610.53
2018-08-06T08:37:15.407Z,101601.92
2018-08-06T08:38:52.574Z,101673.59
2018-08-06T08:40:30.969Z,101610.43
2018-08-06T08:42:09.498Z,101478.44
2018-08-06T08:43:45.825Z,101491.92
2018-08-06T08:45:22.797Z,101527.75
2018-08-06T08:47:00.056Z,101613.42
2018-08-06T08:48:37.862Z,101637.63
2018-08-06T08:50:19.627Z,101617.53
2018-08-06T08:51:56.954Z,101622.42
2018-08-06T08:53:34.481Z,101802.97
2018-08-06T08:55:12.308Z,102035.33
2018-08-06T08:56:48.773Z,102223.16
2018-08-06T08:58:25.529Z,102276.25
2018-08-06T09:00:16.339Z,102477.34
2018-08-06T09:01:55.966Z,102415.16
2018-08-06T09:03:32.617Z,102073.22
2018-08-06T09:05:12.541Z,101950.01
2018-08-06T09:06:49.366Z,101897.39
2018-08-06T09:08:25.566Z,101922.52
2018-08-06T09:10:03.675Z,101904.05
2018-08-06T09:11:42.850Z,102033.47
2018-08-06T09:13:21.261Z,102123.92
2018-08-06T09:14:59.868Z,102009.59
2018-08-06T09:16:52.345Z,102029.48
2018-08-06T09:18:29.461Z,102427.50
2018-08-06T09:20:06.454Z,102722.25
2018-08-06T09:21:44.963Z,102832.00
2018-08-06T09:23:23.936Z,102818.95
2018-08-06T09:25:01.097Z,102861.48
2018-08-06T09:26:37.358Z,103042.36
2018-08-06T09:28:16.008Z,103135.65
2018-08-06T09:29:52.317Z,103218.98
2018-08-06T09:31:30.517Z,103343.09
2018-08-06T09:33:07.250Z,103056.44
2018-08-06T09:34:44.654Z,102979.03
2018-08-06T09:36:21.830Z,103016.48
2018-08-06T09:38:04.322Z,103009.70
2018-08-06T09:39:41.938Z,102723.84
2018-08-06T09:41:19.604Z,102429.18
2018-08-06T09:42:58.750Z,102477.43
2018-08-06T09:44:36.774Z,102685.83
2018-08-06T09:46:14.204Z,102941.64
2018-08-06T09:47:52.185Z,103101.80
2018-08-06T09:49:29.414Z,103173.69
2018-08-06T09:51:08.286Z,103221.36
2018-08-06T09:52:51.711Z,103135.22
2018-08-06T09:54:28.672Z,102986.69
2018-08-06T09:56:06.451Z,102761.08
2018-08-06T09:57:44.419Z,102737.97
2018-08-06T09:59:21.321Z,102945.37
2018-08-06T10:02:03.581Z,103061.66
2018-08-06T10:03:41.975Z,103210.61
2018-08-06T10:05:34.167Z,103244.60
2018-08-06T10:07:12.933Z,103265.30
2018-08-06T10:08:53.448Z,103289.33
2018-08-06T10:10:30.302Z,103331.91
2018-08-06T10:12:10.167Z,103246.78
2018-08-06T10:13:47.666Z,103126.74
2018-08-06T10:15:24.774Z,103120.83
2018-08-06T10:17:02.755Z,103308.28
2018-08-06T10:18:42.591Z,103430.19
2018-08-06T10:20:20.543Z,103461.73
2018-08-06T10:21:57.125Z,103361.58
2018-08-06T10:23:37.088Z,103004.70
2018-08-06T10:25:16.276Z,102800.27
2018-08-06T10:26:53.174Z,102809.69
2018-08-06T10:28:29.849Z,102883.73
2018-08-06T10:30:16.636Z,102871.05
2018-08-06T10:31:57.862Z,102966.94
2018-08-06T10:33:36.607Z,103079.59
2018-08-06T10:35:17.063Z,103235.25
2018-08-06T10:36:58.232Z,103337.65
2018-08-06T10:38:35.338Z,103357.55
2018-08-06T10:40:16.047Z,103185.91
2018-08-06T10:41:53.779Z,102884.81
2018-08-06T10:43:30.578Z,102746.13
2018-08-06T10:45:14.318Z,102489.53
2018-08-06T10:46:50.785Z,102389.41
2018-08-06T10:48:31.805Z,102371.77
2018-08-06T10:50:08.721Z,102527.42
2018-08-06T10:51:46.317Z,102823.88
2018-08-06T10:53:23.541Z,102969.48
2018-08-06T10:55:02.518Z,102960.81
2018-08-06T10:56:40.450Z,102882.64
2018-08-06T10:58:18.043Z,102847.24
2018-08-06T10:59:56.291Z,102693.76
2018-08-06T11:01:35.885Z,102483.27
2018-08-06T11:03:13.458Z,102461.56
2018-08-06T11:04:51.194Z,102612.84
2018-08-06T11:06:30.584Z,102888.23
2018-08-06T11:08:08.696Z,103114.06
2018-08-06T11:09:45.700Z,103247.23
2018-08-06T11:11:25.939Z,103340.53
2018-08-06T11:13:04.152Z,103295.70
2018-08-06T11:14:43.908Z,103268.91
2018-08-06T11:16:21.890Z,103145.65
2018-08-06T11:18:00.318Z,103209.16
2018-08-06T11:19:39.707Z,103178.25
2018-08-06T11:21:17.874Z,102845.10
2018-08-06T11:22:56.273Z,102648.55
2018-08-06T11:24:36.386Z,102713.09
2018-08-06T11:26:15.468Z,102806.56
2018-08-06T11:27:52.615Z,102784.95
2018-08-06T11:29:30.090Z,102826.31
2018-08-06T11:31:06.657Z,102807.84
2018-08-06T11:32:50.920Z,102678.98
2018-08-06T11:34:28.524Z,102654.27
2018-08-06T11:36:05.300Z,102697.47
2018-08-06T11:37:48.402Z,102652.76
2018-08-06T11:39:25.046Z,102776.95
2018-08-06T11:41:03.542Z,102977.16
2018-08-06T11:42:44.716Z,103127.46
2018-08-06T11:44:21.785Z,103362.42
2018-08-06T11:45:59.355Z,103472.61
2018-08-06T11:47:38.803Z,103417.28
2018-08-06T11:49:19.440Z,103357.03
2018-08-06T11:51:02.358Z,103447.66
2018-08-06T11:52:41.139Z,103550.06
2018-08-06T11:54:18.477Z,103647.30
2018-08-06T11:55:59.833Z,103694.89
2018-08-06T11:57:41.873Z,103450.70
2018-08-06T11:59:19.558Z,103282.03
2018-08-06T12:01:00.449Z,103134.36
2018-08-06T12:02:42.458Z,103140.15
2018-08-06T12:04:18.811Z,102997.92
2018-08-06T12:05:57.415Z,102814.28
2018-08-06T12:07:35.250Z,102851.84
2018-08-06T12:09:13.476Z,102942.23
2018-08-06T12:10:54.711Z,103102.44
2018-08-06T12:12:32.480Z,103236.41
2018-08-06T12:14:33.984Z,103480.70
2018-08-06T12:16:13.017Z,103641.30
2018-08-06T12:17:59.616Z,103636.27
2018-08-06T12:19:38.939Z,103658.57
2018-08-06T12:21:16.196Z,103752.48
2018-08-06T12:22:54.444Z,103637.56
2018-08-06T12:24:32.802Z,103330.47
2018-08-06T12:26:10.603Z,103232.47
2018-08-06T12:27:50.974Z,103182.23
2018-08-06T12:29:32.772Z,103381.59
2018-08-06T12:31:10.379Z,103528.48
2018-08-06T12:32:53.223Z,103604.19
2018-08-06T12:34:29.561Z,103635.89
2018-08-06T12:36:06.680Z,103699.49
2018-08-06T12:37:44.325Z,103487.81
2018-08-06T12:39:22.317Z,103416.61
2018-08-06T12:41:21.931Z,103480.14
2018-08-06T12:43:05.322Z,103401.16
2018-08-06T12:44:44.105Z,103244.17
2018-08-06T12:46:22.496Z,103110.66
2018-08-06T12:47:59.773Z,103049.87
2018-08-06T12:49:37.485Z,103013.16
2018-08-06T12:51:14.198Z,103037.08
2018-08-06T12:52:51.648Z,103048.90
2018-08-06T12:54:30.540Z,102996.22
2018-08-06T12:56:09.377Z,103004.40
2018-08-06T12:57:47.170Z,103029.20
2018-08-06T12:59:30.282Z,103150.52
2018-08-06T13:01:13.613Z,103421.44
2018-08-06T13:02:59.805Z,103465.45
2018-08-06T13:04:39.767Z,103585.67
2018-08-06T13:06:21.044Z,103751.30
2018-08-06T13:08:11.349Z,103793.97
2018-08-06T13:09:51.781Z,103833.03
2018-08-06T13:11:30.695Z,103881.74
2018-08-06T13:13:08.884Z,103767.50
2018-08-06T13:14:47.235Z,103610.83
2018-08-06T13:16:28.817Z,103712.89
2018-08-06T13:18:08.514Z,103806.44
2018-08-06T13:19:48.253Z,103816.43
2018-08-06T13:21:26.942Z,103917.80
2018-08-06T13:23:04.062Z,103989.19
2018-08-06T13:24:47.217Z,104023.73
2018-08-06T13:26:30.584Z,103995.05
2018-08-06T13:28:07.954Z,104054.98
2018-08-06T13:29:44.354Z,103892.09
2018-08-06T13:31:24.835Z,103783.91
2018-08-06T13:34:42.551Z,103991.17
2018-08-06T13:36:19.757Z,104037.48
2018-08-06T13:37:56.098Z,103820.97
2018-08-06T13:39:36.233Z,103687.30
2018-08-06T13:41:15.948Z,103571.48
2018-08-06T13:42:55.883Z,103473.45
2018-08-06T13:44:33.624Z,103306.50
2018-08-06T13:46:13.505Z,103212.66
2018-08-06T13:47:54.000Z,103202.73
2018-08-06T13:49:31.673Z,103321.37
2018-08-06T13:51:10.843Z,103501.40
2018-08-06T13:52:51.603Z,103647.83
2018-08-06T13:54:36.842Z,103607.34
2018-08-06T13:56:13.525Z,103537.42
2018-08-06T13:57:50.563Z,103409.95
2018-08-06T13:59:27.843Z,103235.93
2018-08-06T14:01:05.418Z,103191.88
2018-08-06T14:02:44.144Z,103337.23
2018-08-06T14:04:20.998Z,103234.23
2018-08-06T14:05:57.912Z,103035.95
2018-08-06T14:07:34.471Z,102986.03
2018-08-06T14:09:12.620Z,103098.27
2018-08-06T14:10:49.959Z,103249.11
2018-08-06T14:12:26.849Z,103373.66
2018-08-06T14:14:05.652Z,103388.22
2018-08-06T14:15:44.667Z,103460.76
2018-08-06T14:17:26.570Z,103551.25
2018-08-06T14:19:09.500Z,103756.51
2018-08-06T14:20:46.862Z,103858.83
2018-08-06T14:22:26.124Z,103905.97
2018-08-06T14:24:02.892Z,103884.53
2018-08-06T14:25:40.935Z,103882.75
2018-08-06T14:27:17.974Z,103597.36
2018-08-06T14:28:55.260Z,103335.17
2018-08-06T14:30:34.962Z,103254.53
2018-08-06T14:32:11.293Z,103427.08
2018-08-06T14:33:49.696Z,103571.80
2018-08-06T14:35:30.924Z,103439.33
2018-08-06T14:37:11.653Z,103425.20
2018-08-06T14:38:49.770Z,103373.92
2018-08-06T14:40:29.551Z,103332.13
2018-08-06T14:42:06.802Z,103311.20
2018-08-06T14:43:43.169Z,103201.86
2018-08-06T14:45:19.824Z,103108.59
2018-08-06T14:46:57.133Z,103049.56
2018-08-06T14:48:36.525Z,103102.18
2018-08-06T14:50:16.571Z,103227.49
2018-08-06T14:51:53.674Z,103331.81
2018-08-06T14:53:29.970Z,103515.81
2018-08-06T14:55:07.234Z,103528.06
2018-08-06T14:56:44.081Z,103530.70
2018-08-06T14:58:20.601Z,103459.83
2018-08-06T14:59:57.849Z,103377.34
2018-08-06T15:01:34.861Z,103450.73
2018-08-06T15:03:12.486Z,103372.22
2018-08-06T15:04:49.857Z,103287.41
2018-08-06T15:06:27.102Z,103237.02
2018-08-06T15:08:03.475Z,103284.28
2018-08-06T15:09:40.534Z,103225.20
2018-08-06T15:11:20.030Z,103260.50
2018-08-06T15:13:01.222Z,103309.89
2018-08-06T15:14:38.618Z,103448.62
2018-08-06T15:16:14.859Z,103625.12
2018-08-06T15:17:53.211Z,103776.19
2018-08-06T15:19:35.976Z,103823.92
2018-08-06T15:21:17.059Z,103872.52
2018-08-06T15:22:55.887Z,103883.50
2018-08-06T15:24:35.515Z,103903.88
2018-08-06T15:26:14.774Z,103886.09
2018-08-06T15:27:53.117Z,103812.77
2018-08-06T15:29:30.837Z,103815.93
2018-08-06T15:31:09.213Z,103820.98
2018-08-06T15:32:52.772Z,103785.48
2018-08-06T15:34:30.796Z,103618.81
2018-08-06T15:36:07.158Z,103419.96
2018-08-06T15:37:45.852Z,103375.94
2018-08-06T15:39:22.403Z,103297.94
2018-08-06T15:41:03.629Z,103175.99
2018-08-06T15:42:40.398Z,103044.59
2018-08-06T15:44:17.719Z,102993.38
2018-08-06T15:45:55.968Z,102984.83
2018-08-06T15:47:35.139Z,102943.17
2018-08-06T15:49:16.068Z,102916.38
2018-08-06T15:50:58.568Z,102963.84
2018-08-06T15:52:38.647Z,103207.44
2018-08-06T15:54:20.948Z,103338.63
2018-08-06T15:56:00.223Z,103425.29
2018-08-06T15:57:37.625Z,103447.48
2018-08-06T15:59:29.221Z,103462.87
2018-08-06T16:01:22.687Z,103256.50
2018-08-06T16:03:04.246Z,103350.27
2018-08-06T16:04:46.982Z,103423.69
2018-08-06T16:06:24.743Z,103373.67
2018-08-06T16:08:01.759Z,103337.06
2018-08-06T16:09:41.708Z,103414.23
2018-08-06T16:11:21.845Z,103466.20
2018-08-06T16:12:59.280Z,103478.06
2018-08-06T16:14:36.811Z,103447.17
2018-08-06T16:16:14.735Z,103459.39
2018-08-06T16:17:51.948Z,103548.73
2018-08-06T16:19:32.026Z,103715.70
2018-08-06T16:21:09.116Z,103794.31
2018-08-06T16:22:45.783Z,103800.25
2018-08-06T16:24:22.582Z,103759.70
2018-08-06T16:27:32.983Z,103726.05
2018-08-06T16:29:09.418Z,103672.40
2018-08-06T16:30:49.036Z,103652.85
2018-08-06T16:32:27.621Z,103762.75
2018-08-06T16:34:05.689Z,103914.05
2018-08-06T16:35:42.790Z,103915.34
2018-08-06T16:37:19.235Z,103924.89
2018-08-06T16:39:01.226Z,103972.27
2018-08-06T16:40:38.682Z,104035.31
2018-08-06T16:42:15.307Z,104044.03
2018-08-06T16:43:52.706Z,104138.63
2018-08-06T16:45:33.553Z,104067.11
2018-08-06T16:47:10.366Z,103939.20
2018-08-06T16:48:47.598Z,104026.59
2018-08-06T16:50:32.022Z,104097.43
2018-08-06T16:52:09.714Z,104158.94
2018-08-06T16:53:47.903Z,104162.98
2018-08-06T16:55:27.738Z,104120.60
2018-08-06T16:57:04.518Z,104043.63
2018-08-06T16:58:41.886Z,103900.72
2018-08-06T17:00:21.491Z,103776.48
2018-08-06T17:01:57.876Z,103635.74
2018-08-06T17:03:35.364Z,103559.00
2018-08-06T17:05:14.377Z,103666.55
2018-08-06T17:06:52.295Z,103632.45
2018-08-06T17:08:35.502Z,103492.15
2018-08-06T17:10:20.652Z,103531.62
2018-08-06T17:12:04.536Z,103574.66
2018-08-06T17:13:44.894Z,103553.73
2018-08-06T17:15:23.772Z,103691.66
2018-08-06T17:17:01.631Z,103734.38
2018-08-06T17:18:38.646Z,103574.97
2018-08-06T17:20:24.071Z,103454.70
2018-08-06T17:22:02.393Z,103400.98
2018-08-06T17:23:44.685Z,103361.03
2018-08-06T17:25:23.350Z,103470.81
2018-08-06T17:27:00.686Z,103317.95
2018-08-06T17:28:38.478Z,103281.73
2018-08-06T17:30:17.579Z,103410.77
2018-08-06T17:32:15.062Z,103461.63
2018-08-06T17:33:54.383Z,103509.20
2018-08-06T17:35:35.355Z,103535.43
2018-08-06T17:37:14.958Z,103376.98
2018-08-06T17:38:51.434Z,103262.39
2018-08-06T17:40:29.821Z,103224.35
2018-08-06T17:42:07.547Z,103300.34
2018-08-06T17:43:43.922Z,103435.44
2018-08-06T17:45:22.913Z,103484.98
2018-08-06T17:46:59.286Z,103342.34
2018-08-06T17:48:40.351Z,103298.86
2018-08-06T17:50:23.754Z,103196.48
2018-08-06T17:52:08.730Z,103172.83
2018-08-06T17:53:49.362Z,103037.98
2018-08-06T17:55:29.476Z,103009.78
2018-08-06T17:57:09.888Z,103007.02
2018-08-06T17:58:47.930Z,103022.89
2018-08-06T18:00:28.229Z,103116.06
2018-08-06T18:02:10.477Z,103176.25
2018-08-06T18:03:48.072Z,103194.44
2018-08-06T18:06:05.627Z,103071.11
2018-08-06T18:07:44.473Z,102929.50
2018-08-06T18:09:27.414Z,102809.77
2018-08-06T18:11:05.171Z,102758.59
2018-08-06T18:12:43.778Z,102716.02
2018-08-06T18:14:21.515Z,102747.66
2018-08-06T18:16:01.428Z,102913.04
2018-08-06T18:17:41.313Z,102917.97
2018-08-06T18:19:18.417Z,102802.77
2018-08-06T18:20:57.542Z,102908.05
2018-08-06T18:22:35.618Z,102940.50
2018-08-06T18:24:15.485Z,102987.09
2018-08-06T18:26:25.585Z,102935.97
2018-08-06T18:28:01.953Z,102952.33
2018-08-06T18:29:40.343Z,102960.80
2018-08-06T18:31:17.716Z,102852.20
2018-08-06T18:32:54.050Z,102817.89
2018-08-06T18:34:30.519Z,102871.72
2018-08-06T18:36:08.705Z,102883.90
2018-08-06T18:37:45.745Z,103024.98
2018-08-06T18:39:23.071Z,103019.06
2018-08-06T18:41:00.383Z,103043.48
2018-08-06T18:42:37.217Z,103041.61
2018-08-06T18:44:14.845Z,102951.53
2018-08-06T18:45:54.347Z,102869.70
2018-08-06T18:47:35.125Z,102878.27
2018-08-06T18:49:15.078Z,102956.95
2018-08-06T18:50:58.196Z,102975.84
2018-08-06T18:52:40.514Z,102845.20
2018-08-06T18:54:21.538Z,102841.95
2018-08-06T18:56:04.878Z,102799.06
2018-08-06T18:57:44.578Z,102833.91
2018-08-06T18:59:22.989Z,102875.91
2018-08-06T19:01:02.869Z,102839.68
2018-08-06T19:02:41.274Z,102759.70
2018-08-06T19:04:20.737Z,102813.91